Time;durP1;ratioP1;P1;durP2;ratioP2;P2;SDS_P1;SDS_P2;PMS_P1;PMS_P2;Temp;Humidity;BMP_temperature;BMP_pressure;BME280_temperature;BME280_humidity;BME280_pressure;Samples;Min_cycle;Max_cycle;Signal;HPM_P1;HPM_P2
2022/12/13 00:02:50;;;;;;;7.10;3.67;;;;;;;;;;10423294;28;20042;-59
2022/12/13 00:07:51;;;;;;;7.32;3.63;;;;;;;;;;10387192;28;20026;-58
2022/12/13 00:12:51;;;;;;;7.97;4.45;;;;;;;;;;10395156;28;20911;-59
2022/12/13 00:17:52;;;;;;;7.75;2.92;;;;;;;;;;10391182;28;20040;-59
2022/12/13 00:22:53;;;;;;;5.57;3.13;;;;;;;;;;10379105;28;20037;-59
2022/12/13 00:27:53;;;;;;;8.73;3.13;;;;;;;;;;10404608;28;20045;-58
2022/12/13 00:32:54;;;;;;;5.05;3.38;;;;;;;;;;10393703;28;20442;-59
2022/12/13 00:37:55;;;;;;;6.38;3.60;;;;;;;;;;10395488;28;20022;-58
2022/12/13 00:42:55;;;;;;;6.47;3.17;;;;;;;;;;10388750;28;20021;-59
2022/12/13 00:47:56;;;;;;;4.70;3.25;;;;;;;;;;10390624;28;20087;-59
2022/12/13 00:52:59;;;;;;;6.93;3.50;;;;;;;;;;10391585;28;20029;-58
2022/12/13 00:58:00;;;;;;;4.22;3.17;;;;;;;;;;10403169;28;20033;-59
2022/12/13 01:03:19;;;;;;;8.18;3.70;;;;;;;;;;10390520;28;20083;-59
2022/12/13 01:08:19;;;;;;;5.25;2.85;;;;;;;;;;10390636;28;20040;-59
2022/12/13 01:13:20;;;;;;;6.43;3.45;;;;;;;;;;10404693;28;20026;-59
2022/12/13 01:18:21;;;;;;;6.65;3.30;;;;;;;;;;10409751;28;20108;-58
2022/12/13 01:23:22;;;;;;;5.45;3.25;;;;;;;;;;10410073;28;20105;-59
2022/12/13 01:28:23;;;;;;;6.82;3.00;;;;;;;;;;10409729;28;20087;-58
2022/12/13 01:33:24;;;;;;;5.15;2.90;;;;;;;;;;10409907;28;20025;-58
2022/12/13 01:38:25;;;;;;;4.35;3.00;;;;;;;;;;10402527;28;20243;-58
2022/12/13 01:43:40;;;;;;;5.43;3.20;;;;;;;;;;10406343;28;20160;-58
2022/12/13 01:48:50;;;;;;;6.22;2.50;;;;;;;;;;10409225;28;20058;-59
2022/12/13 01:53:52;;;;;;;4.90;2.85;;;;;;;;;;10412476;28;20481;-58
2022/12/13 01:58:54;;;;;;;4.57;2.53;;;;;;;;;;10398087;28;20508;-58
2022/12/13 02:03:55;;;;;;;6.32;2.50;;;;;;;;;;10397117;28;20022;-59
2022/12/13 02:08:57;;;;;;;6.15;3.17;;;;;;;;;;10407925;28;20025;-58
2022/12/13 02:13:57;;;;;;;7.88;3.45;;;;;;;;;;10408207;28;20025;-58
2022/12/13 02:19:32;;;;;;;3.15;2.78;;;;;;;;;;10386069;28;20033;-58
2022/12/13 02:24:47;;;;;;;4.95;3.03;;;;;;;;;;10406360;28;20037;-58
2022/12/13 02:30:12;;;;;;;14.10;3.05;;;;;;;;;;10390153;28;20037;-60
2022/12/13 02:35:33;;;;;;;9.25;2.80;;;;;;;;;;10412178;28;20029;-60
2022/12/13 02:40:45;;;;;;;5.55;2.75;;;;;;;;;;10417712;28;20036;-60
2022/12/13 02:45:53;;;;;;;5.20;2.70;;;;;;;;;;10390941;28;20054;-60
2022/12/13 02:50:55;;;;;;;8.13;2.88;;;;;;;;;;10405932;28;20100;-60
2022/12/13 03:02:41;;;;;;;3.03;2.35;;;;;;;;;;10400413;28;20037;-60
2022/12/13 03:08:16;;;;;;;6.13;2.97;;;;;;;;;;10387855;28;20346;-60
2022/12/13 03:13:35;;;;;;;7.53;2.83;;;;;;;;;;10403653;28;20028;-60
2022/12/13 03:18:38;;;;;;;3.55;2.60;;;;;;;;;;10396729;28;20113;-60
2022/12/13 03:23:39;;;;;;;2.92;2.17;;;;;;;;;;10397024;28;20064;-60
2022/12/13 03:28:40;;;;;;;4.60;2.85;;;;;;;;;;10391993;28;20017;-59
2022/12/13 03:33:40;;;;;;;2.92;2.30;;;;;;;;;;10404109;28;20040;-60
2022/12/13 03:38:41;;;;;;;3.58;2.25;;;;;;;;;;10403625;28;20449;-60
2022/12/13 03:43:42;;;;;;;5.53;2.47;;;;;;;;;;10403630;28;20029;-60
2022/12/13 03:48:42;;;;;;;3.67;2.38;;;;;;;;;;10391877;28;20053;-59
2022/12/13 03:53:43;;;;;;;3.78;2.33;;;;;;;;;;10392438;28;20461;-59
2022/12/13 03:58:44;;;;;;;2.60;2.00;;;;;;;;;;10405179;28;20026;-59
2022/12/13 04:03:46;;;;;;;5.80;2.38;;;;;;;;;;10403437;28;20461;-60
2022/12/13 04:08:47;;;;;;;4.38;2.63;;;;;;;;;;10392544;28;20037;-59
2022/12/13 04:13:47;;;;;;;5.18;2.83;;;;;;;;;;10391854;28;20400;-59
2022/12/13 04:18:48;;;;;;;2.80;2.15;;;;;;;;;;10381918;28;20107;-60
2022/12/13 04:23:48;;;;;;;4.53;2.00;;;;;;;;;;10397339;28;20029;-60
2022/12/13 04:28:49;;;;;;;3.88;2.47;;;;;;;;;;10401959;28;20030;-60
2022/12/13 04:33:50;;;;;;;3.83;2.25;;;;;;;;;;10385739;28;20068;-60
2022/12/13 04:38:51;;;;;;;2.47;2.00;;;;;;;;;;10384662;28;20423;-60
2022/12/13 04:43:53;;;;;;;3.10;2.35;;;;;;;;;;10390395;28;20034;-59
2022/12/13 04:48:53;;;;;;;2.58;2.20;;;;;;;;;;10406348;28;20048;-60
2022/12/13 04:53:54;;;;;;;3.47;2.20;;;;;;;;;;10398784;28;20366;-60
2022/12/13 04:58:55;;;;;;;2.42;2.05;;;;;;;;;;10411179;28;20377;-59
2022/12/13 05:03:55;;;;;;;2.78;2.20;;;;;;;;;;10396899;28;20022;-59
2022/12/13 05:08:56;;;;;;;3.28;2.10;;;;;;;;;;10400579;28;20033;-59
2022/12/13 05:13:56;;;;;;;3.88;2.15;;;;;;;;;;10409865;28;20034;-60
2022/12/13 05:18:57;;;;;;;5.40;2.08;;;;;;;;;;10402449;28;20041;-60
2022/12/13 05:23:57;;;;;;;3.00;2.00;;;;;;;;;;10410885;28;20029;-60
2022/12/13 05:28:58;;;;;;;2.97;1.70;;;;;;;;;;10409928;28;20099;-60
2022/12/13 05:33:59;;;;;;;2.83;2.17;;;;;;;;;;10408679;28;20026;-59
2022/12/13 05:38:59;;;;;;;2.83;2.03;;;;;;;;;;10396102;28;20088;-59
2022/12/13 05:44:00;;;;;;;2.55;2.20;;;;;;;;;;10409218;28;20018;-60
2022/12/13 05:49:01;;;;;;;2.00;1.80;;;;;;;;;;10407908;28;20053;-59
2022/12/13 05:54:02;;;;;;;2.38;2.15;;;;;;;;;;10396947;28;20032;-60
2022/12/13 05:59:02;;;;;;;2.30;1.90;;;;;;;;;;10407939;28;20021;-59
2022/12/13 06:04:03;;;;;;;2.42;1.80;;;;;;;;;;10392608;28;20052;-59
2022/12/13 06:09:04;;;;;;;1.98;1.77;;;;;;;;;;10406530;28;20033;-59
2022/12/13 06:14:04;;;;;;;1.70;1.60;;;;;;;;;;10394761;28;20079;-59
2022/12/13 06:19:05;;;;;;;2.65;1.80;;;;;;;;;;10399486;28;20030;-58
2022/12/13 06:24:07;;;;;;;3.47;2.13;;;;;;;;;;10391940;28;20079;-59
2022/12/13 06:29:09;;;;;;;1.75;1.55;;;;;;;;;;10395223;28;20033;-59
2022/12/13 06:34:09;;;;;;;5.70;1.95;;;;;;;;;;10389907;28;20425;-59
2022/12/13 06:39:10;;;;;;;4.30;2.47;;;;;;;;;;10392807;28;20099;-59
2022/12/13 06:44:11;;;;;;;2.63;2.40;;;;;;;;;;10381081;28;20524;-59
2022/12/13 06:49:11;;;;;;;3.63;2.40;;;;;;;;;;10394926;28;20124;-59
2022/12/13 06:54:12;;;;;;;6.18;2.40;;;;;;;;;;10390573;28;20049;-62
2022/12/13 06:59:13;;;;;;;5.40;2.60;;;;;;;;;;10392832;28;20033;-59
2022/12/13 07:04:13;;;;;;;4.82;2.60;;;;;;;;;;10386485;28;20032;-61
2022/12/13 07:09:14;;;;;;;6.47;2.75;;;;;;;;;;10398967;28;20029;-60
2022/12/13 07:14:14;;;;;;;10.93;2.60;;;;;;;;;;10385218;28;20472;-60
2022/12/13 07:19:15;;;;;;;7.18;2.95;;;;;;;;;;10373052;28;20470;-60
2022/12/13 07:24:16;;;;;;;6.85;2.47;;;;;;;;;;10390627;28;20060;-60
2022/12/13 07:29:16;;;;;;;3.47;2.55;;;;;;;;;;10393990;28;20041;-60
2022/12/13 07:34:17;;;;;;;5.32;2.20;;;;;;;;;;10392310;28;20037;-60
2022/12/13 07:39:17;;;;;;;10.32;2.70;;;;;;;;;;10383543;28;20044;-60
2022/12/13 07:44:19;;;;;;;2.92;2.15;;;;;;;;;;10392673;28;20030;-60
2022/12/13 07:49:19;;;;;;;4.28;2.40;;;;;;;;;;10392065;28;20058;-60
2022/12/13 07:54:20;;;;;;;11.50;2.70;;;;;;;;;;10392843;28;20026;-60
2022/12/13 07:59:20;;;;;;;5.10;2.35;;;;;;;;;;10398264;28;20164;-60
2022/12/13 08:04:21;;;;;;;7.70;2.80;;;;;;;;;;10403403;28;20041;-60
2022/12/13 08:09:22;;;;;;;5.13;2.63;;;;;;;;;;10404341;28;20034;-60
2022/12/13 08:14:22;;;;;;;5.18;2.85;;;;;;;;;;10391983;28;21528;-60
2022/12/13 08:19:23;;;;;;;5.15;2.63;;;;;;;;;;10396160;28;20022;-60
2022/12/13 08:24:29;;;;;;;3.28;2.30;;;;;;;;;;10409306;28;20022;-60
2022/12/13 08:29:31;;;;;;;3.25;2.58;;;;;;;;;;10400689;28;20473;-60
2022/12/13 08:34:32;;;;;;;4.00;2.65;;;;;;;;;;10398320;28;20116;-60
2022/12/13 08:39:36;;;;;;;5.15;2.70;;;;;;;;;;10400733;28;20041;-60
2022/12/13 08:44:36;;;;;;;5.50;3.03;;;;;;;;;;10398118;28;20033;-61
2022/12/13 08:49:37;;;;;;;3.88;2.38;;;;;;;;;;10409845;28;20485;-60
2022/12/13 08:54:37;;;;;;;4.95;2.92;;;;;;;;;;10386958;28;20492;-61
2022/12/13 08:59:38;;;;;;;6.80;2.70;;;;;;;;;;10411018;28;20457;-60
2022/12/13 09:04:39;;;;;;;5.68;2.78;;;;;;;;;;10402888;28;20378;-60
2022/12/13 09:09:39;;;;;;;3.38;2.55;;;;;;;;;;10398877;28;20053;-60
2022/12/13 09:14:40;;;;;;;3.70;2.65;;;;;;;;;;10387202;28;20029;-60
2022/12/13 09:19:40;;;;;;;4.97;2.85;;;;;;;;;;10383821;28;20457;-58
2022/12/13 09:24:41;;;;;;;3.50;2.60;;;;;;;;;;10390206;28;20389;-60
2022/12/13 09:29:42;;;;;;;4.55;2.80;;;;;;;;;;10399673;28;20041;-61
2022/12/13 09:34:42;;;;;;;3.35;2.75;;;;;;;;;;10405864;28;20034;-60
2022/12/13 09:39:43;;;;;;;3.25;2.55;;;;;;;;;;10385006;28;20028;-60
2022/12/13 09:44:54;;;;;;;4.88;2.80;;;;;;;;;;10383859;28;20053;-60
2022/12/13 09:49:54;;;;;;;4.82;2.78;;;;;;;;;;10377418;28;20510;-60
2022/12/13 09:54:56;;;;;;;2.85;2.58;;;;;;;;;;10383089;28;20014;-60
2022/12/13 09:59:57;;;;;;;4.05;2.72;;;;;;;;;;10385089;28;20017;-60
2022/12/13 10:05:30;;;;;;;4.97;2.72;;;;;;;;;;10382091;28;20020;-60
2022/12/13 10:10:31;;;;;;;6.72;2.60;;;;;;;;;;10382674;28;20393;-60
2022/12/13 10:15:33;;;;;;;3.85;2.80;;;;;;;;;;10384161;28;20050;-60
2022/12/13 10:20:34;;;;;;;6.18;2.55;;;;;;;;;;10396359;28;20108;-60
2022/12/13 10:25:47;;;;;;;4.80;2.92;;;;;;;;;;10399643;28;20064;-60
2022/12/13 10:30:49;;;;;;;3.38;2.60;;;;;;;;;;10394871;28;20033;-60
2022/12/13 10:36:28;;;;;;;3.70;3.05;;;;;;;;;;10387177;28;20367;-59
2022/12/13 10:41:37;;;;;;;;;;;;;;;;;;10393314;28;20470;-60
2022/12/13 10:46:48;;;;;;;5.47;2.58;;;;;;;;;;10389835;28;20397;-61
2022/12/13 10:51:52;;;;;;;5.13;2.70;;;;;;;;;;10391290;28;20044;-59
2022/12/13 10:56:58;;;;;;;6.05;2.40;;;;;;;;;;10416150;28;20128;-59
2022/12/13 11:02:21;;;;;;;3.38;2.50;;;;;;;;;;10395233;28;20041;-59
2022/12/13 11:07:31;;;;;;;12.95;2.97;;;;;;;;;;10396807;28;20029;-60
2022/12/13 11:12:33;;;;;;;13.90;3.22;;;;;;;;;;10382494;28;20033;-59
2022/12/13 11:17:44;;;;;;;9.63;3.03;;;;;;;;;;10379078;28;20045;-59
2022/12/13 11:22:45;;;;;;;8.32;2.60;;;;;;;;;;10377366;28;20036;-59
2022/12/13 11:28:12;;;;;;;3.30;2.50;;;;;;;;;;10392120;28;20040;-59
2022/12/13 11:33:43;;;;;;;6.05;2.60;;;;;;;;;;10385164;28;20033;-59
2022/12/13 11:39:15;;;;;;;8.38;2.85;;;;;;;;;;10406254;28;20552;-60
2022/12/13 11:44:40;;;;;;;3.25;2.22;;;;;;;;;;10392660;28;20068;-60
2022/12/13 11:49:44;;;;;;;4.13;2.50;;;;;;;;;;10402899;28;20049;-59
2022/12/13 11:54:55;;;;;;;3.15;2.45;;;;;;;;;;10394309;28;20378;-59
2022/12/13 12:00:05;;;;;;;5.38;2.60;;;;;;;;;;10385011;28;20461;-60
2022/12/13 12:05:36;;;;;;;3.50;2.33;;;;;;;;;;10371666;28;20447;-60
2022/12/13 12:10:43;;;;;;;5.78;2.50;;;;;;;;;;10389426;28;20056;-59
2022/12/13 12:16:04;;;;;;;9.05;2.67;;;;;;;;;;10409016;28;20362;-60
2022/12/13 12:21:37;;;;;;;4.63;2.60;;;;;;;;;;10395836;28;20053;-60
2022/12/13 12:26:49;;;;;;;3.50;2.15;;;;;;;;;;10404065;28;20021;-61
2022/12/13 12:32:12;;;;;;;3.85;2.60;;;;;;;;;;10394000;28;20056;-60
2022/12/13 12:37:22;;;;;;;3.55;2.50;;;;;;;;;;10391960;28;20390;-60
2022/12/13 12:42:46;;;;;;;4.32;2.65;;;;;;;;;;10378230;28;20049;-61
2022/12/13 12:48:26;;;;;;;3.95;2.55;;;;;;;;;;10392583;28;20465;-60
2022/12/13 12:53:45;;;;;;;3.03;2.22;;;;;;;;;;10395252;28;20041;-61
2022/12/13 12:59:14;;;;;;;7.55;2.65;;;;;;;;;;10394092;28;20108;-60
2022/12/13 13:04:19;;;;;;;4.30;2.30;;;;;;;;;;10393340;28;20041;-60
2022/12/13 13:09:21;;;;;;;5.07;2.47;;;;;;;;;;10404195;28;20037;-60
2022/12/13 13:14:38;;;;;;;3.08;2.33;;;;;;;;;;10383881;28;20109;-60
2022/12/13 13:19:41;;;;;;;2.92;2.13;;;;;;;;;;10397578;28;20117;-60
2022/12/13 13:25:24;;;;;;;3.67;2.28;;;;;;;;;;10391485;28;20048;-60
2022/12/13 13:30:25;;;;;;;3.38;2.47;;;;;;;;;;10376074;28;20119;-60
2022/12/13 13:35:32;;;;;;;3.10;2.60;;;;;;;;;;10382571;28;20431;-60
2022/12/13 13:40:37;;;;;;;3.03;2.58;;;;;;;;;;10388331;28;20120;-60
2022/12/13 13:45:55;;;;;;;6.38;2.70;;;;;;;;;;10389474;28;20385;-60
2022/12/13 13:51:05;;;;;;;;;;;;;;;;;;10399989;28;20509;-60
2022/12/13 13:57:04;;;;;;;5.38;2.15;;;;;;;;;;10381365;28;19956;-60
2022/12/13 14:02:29;;;;;;;4.85;2.95;;;;;;;;;;10387975;28;20061;-60
2022/12/13 14:07:56;;;;;;;4.88;2.65;;;;;;;;;;10388360;28;20021;-60
2022/12/13 14:13:49;;;;;;;5.25;2.42;;;;;;;;;;10397770;28;20033;-61
2022/12/13 14:19:23;;;;;;;6.35;2.38;;;;;;;;;;10389307;28;20040;-60
2022/12/13 14:24:51;;;;;;;4.43;2.42;;;;;;;;;;10378606;28;20083;-60
2022/12/13 14:29:52;;;;;;;5.10;2.38;;;;;;;;;;10379840;28;20037;-59
2022/12/13 14:34:56;;;;;;;2.75;2.30;;;;;;;;;;10381794;28;20397;-60
2022/12/13 14:39:59;;;;;;;4.82;2.20;;;;;;;;;;10374263;28;20017;-59
2022/12/13 14:45:22;;;;;;;8.40;2.58;;;;;;;;;;10401877;28;20029;-59
2022/12/13 14:50:26;;;;;;;6.25;2.78;;;;;;;;;;10376623;28;20137;-60
2022/12/13 14:55:36;;;;;;;3.72;2.45;;;;;;;;;;10382360;28;20025;-60
2022/12/13 15:00:40;;;;;;;4.00;2.50;;;;;;;;;;10404785;28;20084;-59
2022/12/13 15:05:49;;;;;;;5.10;2.60;;;;;;;;;;10402668;28;20045;-60
2022/12/13 15:10:58;;;;;;;3.72;2.58;;;;;;;;;;10404318;28;20053;-60
2022/12/13 15:16:05;;;;;;;2.90;2.22;;;;;;;;;;10400041;28;20119;-59
2022/12/13 15:21:27;;;;;;;4.07;2.58;;;;;;;;;;10398387;28;20052;-60
2022/12/13 15:26:28;;;;;;;6.35;2.50;;;;;;;;;;10385876;28;20022;-60
2022/12/13 15:31:33;;;;;;;3.75;2.35;;;;;;;;;;10383611;28;20037;-60
2022/12/13 15:36:37;;;;;;;4.53;2.65;;;;;;;;;;10400150;28;20088;-60
2022/12/13 15:41:44;;;;;;;5.90;2.78;;;;;;;;;;10393229;28;20036;-60
2022/12/13 15:46:51;;;;;;;3.80;2.47;;;;;;;;;;10403918;28;20026;-61
2022/12/13 15:52:21;;;;;;;5.72;3.05;;;;;;;;;;10398157;28;20033;-60
2022/12/13 15:57:26;;;;;;;6.93;2.70;;;;;;;;;;10399797;28;20424;-61
2022/12/13 16:02:28;;;;;;;5.25;2.67;;;;;;;;;;10379928;28;20026;-61
2022/12/13 16:07:38;;;;;;;3.88;2.42;;;;;;;;;;10395710;28;20033;-60
2022/12/13 16:12:54;;;;;;;4.00;2.95;;;;;;;;;;10384194;28;20118;-60
2022/12/13 16:18:23;;;;;;;2.40;2.20;;;;;;;;;;10379219;28;20034;-60
2022/12/13 16:23:24;;;;;;;5.55;2.78;;;;;;;;;;10378734;28;20095;-60
2022/12/13 16:28:25;;;;;;;3.30;2.25;;;;;;;;;;10385907;28;20460;-60
2022/12/13 16:33:26;;;;;;;4.40;2.80;;;;;;;;;;10377295;28;20100;-60
2022/12/13 16:38:26;;;;;;;4.97;3.00;;;;;;;;;;10388847;28;20381;-60
2022/12/13 16:43:29;;;;;;;4.57;2.60;;;;;;;;;;10398794;28;20029;-61
2022/12/13 16:48:30;;;;;;;6.68;2.97;;;;;;;;;;10412189;28;20117;-60
2022/12/13 16:53:32;;;;;;;4.40;2.65;;;;;;;;;;10399271;28;20038;-60
2022/12/13 16:58:32;;;;;;;3.53;2.78;;;;;;;;;;10386937;28;20034;-61
2022/12/13 17:03:33;;;;;;;4.13;3.15;;;;;;;;;;10385465;28;20394;-60
2022/12/13 17:08:33;;;;;;;2.95;2.55;;;;;;;;;;10382398;28;20409;-60
2022/12/13 17:13:34;;;;;;;5.68;2.97;;;;;;;;;;10405135;28;20477;-61
2022/12/13 17:18:34;;;;;;;3.85;2.42;;;;;;;;;;10404156;28;20531;-61
2022/12/13 17:23:35;;;;;;;3.60;2.60;;;;;;;;;;10385185;28;20485;-60
2022/12/13 17:28:37;;;;;;;2.95;2.25;;;;;;;;;;10402017;28;20033;-61
2022/12/13 17:33:38;;;;;;;4.57;2.80;;;;;;;;;;10400800;28;20379;-60
2022/12/13 17:38:46;;;;;;;4.97;2.80;;;;;;;;;;10391703;28;20032;-60
2022/12/13 17:43:47;;;;;;;5.07;2.93;;;;;;;;;;10382069;28;20029;-61
2022/12/13 17:48:47;;;;;;;3.03;2.50;;;;;;;;;;10378720;28;20095;-60
2022/12/13 17:53:48;;;;;;;3.80;2.60;;;;;;;;;;10383057;28;20728;-65
2022/12/13 17:58:48;;;;;;;11.15;2.65;;;;;;;;;;10391716;28;20036;-62
2022/12/13 18:03:54;;;;;;;5.50;3.00;;;;;;;;;;10393196;28;20042;-62
2022/12/13 18:08:54;;;;;;;6.03;2.90;;;;;;;;;;10389365;28;20048;-62
2022/12/13 18:13:55;;;;;;;4.78;2.90;;;;;;;;;;10404317;28;20469;-61
2022/12/13 18:18:56;;;;;;;5.90;2.85;;;;;;;;;;10393257;28;20032;-62
2022/12/13 18:23:58;;;;;;;3.25;2.58;;;;;;;;;;10387811;28;20025;-62
2022/12/13 18:28:59;;;;;;;7.18;3.15;;;;;;;;;;10387131;28;20152;-63
2022/12/13 18:33:59;;;;;;;6.13;2.85;;;;;;;;;;10387296;28;20026;-62
2022/12/13 18:39:00;;;;;;;4.15;2.45;;;;;;;;;;10374773;28;20036;-62
2022/12/13 18:44:12;;;;;;;6.80;3.08;;;;;;;;;;10390286;28;20033;-63
2022/12/13 18:49:20;;;;;;;5.90;2.83;;;;;;;;;;10382906;28;20665;-63
2022/12/13 18:54:20;;;;;;;9.23;3.22;;;;;;;;;;10394296;28;20025;-62
2022/12/13 18:59:21;;;;;;;4.57;2.90;;;;;;;;;;10379663;28;20041;-62
2022/12/13 19:04:21;;;;;;;6.95;3.05;;;;;;;;;;10394960;28;20036;-62
2022/12/13 19:09:22;;;;;;;5.03;2.90;;;;;;;;;;10386226;28;20503;-62
2022/12/13 19:14:23;;;;;;;5.97;3.33;;;;;;;;;;10405501;28;20031;-62
2022/12/13 19:19:23;;;;;;;8.35;3.30;;;;;;;;;;10397120;28;20129;-62
2022/12/13 19:24:24;;;;;;;7.65;2.90;;;;;;;;;;10379918;28;20039;-62
2022/12/13 19:29:25;;;;;;;7.30;3.65;;;;;;;;;;10384439;28;20159;-62
2022/12/13 19:34:25;;;;;;;5.20;3.58;;;;;;;;;;10378915;28;20052;-63
2022/12/13 19:39:26;;;;;;;7.20;3.65;;;;;;;;;;10396077;28;20021;-62
2022/12/13 19:44:26;;;;;;;4.80;3.28;;;;;;;;;;10404060;28;20260;-62
2022/12/13 19:49:27;;;;;;;6.60;3.22;;;;;;;;;;10389564;28;20054;-62
2022/12/13 19:54:27;;;;;;;8.23;2.88;;;;;;;;;;10378374;28;20033;-62
2022/12/13 19:59:28;;;;;;;7.05;3.78;;;;;;;;;;10388882;28;20025;-63
2022/12/13 20:04:29;;;;;;;6.22;3.45;;;;;;;;;;10401760;28;20052;-63
2022/12/13 20:09:29;;;;;;;7.75;3.67;;;;;;;;;;10402591;28;20025;-62
2022/12/13 20:14:30;;;;;;;5.47;3.13;;;;;;;;;;10399093;28;20048;-62
2022/12/13 20:19:31;;;;;;;4.95;3.17;;;;;;;;;;10394887;28;20079;-61
2022/12/13 20:24:31;;;;;;;4.57;3.40;;;;;;;;;;10410182;28;20389;-62
2022/12/13 20:29:32;;;;;;;5.10;3.03;;;;;;;;;;10410695;28;20038;-62
2022/12/13 20:34:33;;;;;;;10.13;3.28;;;;;;;;;;10395988;28;20041;-63
2022/12/13 20:39:33;;;;;;;4.75;3.22;;;;;;;;;;10384856;28;20056;-62
2022/12/13 20:44:34;;;;;;;11.65;3.83;;;;;;;;;;10410643;28;20564;-62
2022/12/13 20:49:35;;;;;;;13.27;4.15;;;;;;;;;;10389137;28;20131;-62
2022/12/13 20:54:35;;;;;;;9.50;4.70;;;;;;;;;;10384873;28;20474;-62
2022/12/13 20:59:36;;;;;;;8.02;5.10;;;;;;;;;;10395501;28;20029;-60
2022/12/13 21:04:39;;;;;;;10.80;4.50;;;;;;;;;;10395493;28;20591;-63
2022/12/13 21:09:40;;;;;;;7.78;4.20;;;;;;;;;;10388457;28;20367;-62
2022/12/13 21:14:40;;;;;;;7.15;4.05;;;;;;;;;;10386965;28;20026;-63
2022/12/13 21:19:42;;;;;;;12.38;4.47;;;;;;;;;;10389556;28;20080;-62
2022/12/13 21:24:42;;;;;;;12.90;5.47;;;;;;;;;;10404436;28;20469;-59
2022/12/13 21:29:43;;;;;;;14.30;5.13;;;;;;;;;;10407861;28;20037;-59
2022/12/13 21:34:43;;;;;;;10.90;5.07;;;;;;;;;;10399894;28;20025;-62
2022/12/13 21:39:45;;;;;;;18.35;5.40;;;;;;;;;;10396990;28;20050;-59
2022/12/13 21:44:45;;;;;;;20.23;5.68;;;;;;;;;;10399230;28;20029;-61
2022/12/13 21:49:46;;;;;;;12.05;5.28;;;;;;;;;;10395272;28;20037;-61
2022/12/13 21:54:46;;;;;;;8.90;5.05;;;;;;;;;;10393321;28;20034;-63
2022/12/13 21:59:47;;;;;;;8.63;4.78;;;;;;;;;;10408470;28;20029;-62
2022/12/13 22:04:54;;;;;;;12.48;5.18;;;;;;;;;;10410638;28;20034;-62
2022/12/13 22:09:56;;;;;;;7.07;4.47;;;;;;;;;;10405421;28;20092;-61
2022/12/13 22:14:56;;;;;;;10.82;4.97;;;;;;;;;;10406084;28;20064;-62
2022/12/13 22:19:57;;;;;;;10.13;4.65;;;;;;;;;;10404227;28;20553;-62
2022/12/13 22:24:58;;;;;;;7.20;4.10;;;;;;;;;;10406665;28;20032;-62
2022/12/13 22:29:59;;;;;;;13.90;4.80;;;;;;;;;;10413031;28;20072;-62
2022/12/13 22:34:59;;;;;;;7.03;4.88;;;;;;;;;;10398929;28;20481;-61
2022/12/13 22:40:00;;;;;;;22.45;5.53;;;;;;;;;;10395091;28;20397;-61
2022/12/13 22:45:01;;;;;;;10.60;4.28;;;;;;;;;;10395357;28;20186;-61
2022/12/13 22:50:01;;;;;;;7.20;4.10;;;;;;;;;;10410806;28;20056;-60
2022/12/13 22:55:02;;;;;;;6.20;4.03;;;;;;;;;;10399544;28;20038;-62
2022/12/13 23:00:24;;;;;;;6.57;3.80;;;;;;;;;;10395643;28;20124;-61
2022/12/13 23:05:25;;;;;;;9.90;4.53;;;;;;;;;;10397871;28;20180;-62
2022/12/13 23:15:44;;;;;;;6.35;4.10;;;;;;;;;;10399565;28;20124;-62
2022/12/13 23:20:45;;;;;;;7.75;4.30;;;;;;;;;;10397595;28;20465;-62
2022/12/13 23:25:45;;;;;;;11.98;4.90;;;;;;;;;;10400038;28;20495;-62
2022/12/13 23:30:46;;;;;;;10.88;3.50;;;;;;;;;;10400727;28;20539;-61
2022/12/13 23:36:02;;;;;;;9.93;5.13;;;;;;;;;;10399492;28;20112;-61
2022/12/13 23:41:14;;;;;;;10.63;3.95;;;;;;;;;;10401964;28;20072;-60
2022/12/13 23:46:18;;;;;;;14.23;4.00;;;;;;;;;;10405335;28;20060;-61
2022/12/13 23:51:19;;;;;;;6.65;3.97;;;;;;;;;;10402047;28;20053;-61
2022/12/13 23:56:20;;;;;;;8.25;3.95;;;;;;;;;;10404786;28;20026;-61
